sensor_id;sensor_type;location;lat;lon;timestamp;P1;durP1;ratioP1;P2;durP2;ratioP2
15273;SDS011;7738;49.532;11.156;2022-07-05T00:01:34;1.38;;;0.20;;
15273;SDS011;7738;49.532;11.156;2022-07-05T00:04:05;2.75;;;0.32;;
15273;SDS011;7738;49.532;11.156;2022-07-05T00:06:35;2.35;;;0.15;;
15273;SDS011;7738;49.532;11.156;2022-07-05T00:09:25;1.80;;;0.20;;
15273;SDS011;7738;49.532;11.156;2022-07-05T00:11:56;0.50;;;0.20;;
15273;SDS011;7738;49.532;11.156;2022-07-05T00:14:29;1.15;;;0.10;;
15273;SDS011;7738;49.532;11.156;2022-07-05T00:17:00;1.83;;;0.15;;
15273;SDS011;7738;49.532;11.156;2022-07-05T00:19:30;0.40;;;0.10;;
15273;SDS011;7738;49.532;11.156;2022-07-05T00:22:00;0.50;;;0.10;;
15273;SDS011;7738;49.532;11.156;2022-07-05T00:24:31;1.15;;;0.10;;
15273;SDS011;7738;49.532;11.156;2022-07-05T00:27:02;1.05;;;0.20;;
15273;SDS011;7738;49.532;11.156;2022-07-05T00:29:35;0.85;;;0.20;;
15273;SDS011;7738;49.532;11.156;2022-07-05T00:32:06;0.73;;;0.20;;
15273;SDS011;7738;49.532;11.156;2022-07-05T00:34:36;0.32;;;0.10;;
15273;SDS011;7738;49.532;11.156;2022-07-05T00:37:07;0.98;;;0.13;;
15273;SDS011;7738;49.532;11.156;2022-07-05T00:39:37;0.20;;;0.10;;
15273;SDS011;7738;49.532;11.156;2022-07-05T00:42:08;0.70;;;0.20;;
15273;SDS011;7738;49.532;11.156;2022-07-05T00:44:41;1.00;;;0.28;;
15273;SDS011;7738;49.532;11.156;2022-07-05T00:47:12;1.95;;;0.32;;
15273;SDS011;7738;49.532;11.156;2022-07-05T00:49:42;1.95;;;0.28;;
15273;SDS011;7738;49.532;11.156;2022-07-05T00:52:13;2.15;;;0.30;;
15273;SDS011;7738;49.532;11.156;2022-07-05T00:54:46;1.33;;;0.20;;
15273;SDS011;7738;49.532;11.156;2022-07-05T00:57:16;0.88;;;0.40;;
15273;SDS011;7738;49.532;11.156;2022-07-05T00:59:51;1.05;;;0.35;;
15273;SDS011;7738;49.532;11.156;2022-07-05T01:02:21;1.88;;;0.40;;
15273;SDS011;7738;49.532;11.156;2022-07-05T01:04:52;2.05;;;0.30;;
15273;SDS011;7738;49.532;11.156;2022-07-05T01:07:23;1.02;;;0.22;;
15273;SDS011;7738;49.532;11.156;2022-07-05T01:09:53;1.38;;;0.30;;
15273;SDS011;7738;49.532;11.156;2022-07-05T01:12:24;2.15;;;0.22;;
15273;SDS011;7738;49.532;11.156;2022-07-05T01:14:57;0.40;;;0.20;;
15273;SDS011;7738;49.532;11.156;2022-07-05T01:17:28;1.00;;;0.30;;
15273;SDS011;7738;49.532;11.156;2022-07-05T01:19:59;2.42;;;0.20;;
15273;SDS011;7738;49.532;11.156;2022-07-05T01:22:34;0.50;;;0.20;;
15273;SDS011;7738;49.532;11.156;2022-07-05T01:25:09;2.20;;;0.30;;
15273;SDS011;7738;49.532;11.156;2022-07-05T01:27:39;2.72;;;0.52;;
15273;SDS011;7738;49.532;11.156;2022-07-05T01:30:10;0.55;;;0.20;;
15273;SDS011;7738;49.532;11.156;2022-07-05T01:32:40;1.08;;;0.35;;
15273;SDS011;7738;49.532;11.156;2022-07-05T01:35:11;1.65;;;0.30;;
15273;SDS011;7738;49.532;11.156;2022-07-05T01:37:50;0.38;;;0.20;;
15273;SDS011;7738;49.532;11.156;2022-07-05T01:40:21;1.02;;;0.28;;
15273;SDS011;7738;49.532;11.156;2022-07-05T01:42:51;4.00;;;0.35;;
15273;SDS011;7738;49.532;11.156;2022-07-05T01:45:22;1.00;;;0.40;;
15273;SDS011;7738;49.532;11.156;2022-07-05T01:48:06;1.83;;;0.40;;
15273;SDS011;7738;49.532;11.156;2022-07-05T01:50:38;2.63;;;0.40;;
15273;SDS011;7738;49.532;11.156;2022-07-05T01:53:14;2.55;;;0.20;;
15273;SDS011;7738;49.532;11.156;2022-07-05T01:55:47;1.63;;;0.45;;
15273;SDS011;7738;49.532;11.156;2022-07-05T01:58:17;1.95;;;0.30;;
15273;SDS011;7738;49.532;11.156;2022-07-05T02:00:48;1.10;;;0.70;;
15273;SDS011;7738;49.532;11.156;2022-07-05T02:03:20;0.68;;;0.47;;
15273;SDS011;7738;49.532;11.156;2022-07-05T02:06:10;1.20;;;0.45;;
15273;SDS011;7738;49.532;11.156;2022-07-05T02:08:43;1.08;;;0.50;;
15273;SDS011;7738;49.532;11.156;2022-07-05T02:11:13;2.85;;;0.40;;
15273;SDS011;7738;49.532;11.156;2022-07-05T02:13:43;5.07;;;0.93;;
15273;SDS011;7738;49.532;11.156;2022-07-05T02:16:14;2.47;;;0.40;;
15273;SDS011;7738;49.532;11.156;2022-07-05T02:18:44;0.93;;;0.30;;
15273;SDS011;7738;49.532;11.156;2022-07-05T02:21:15;1.45;;;0.47;;
15273;SDS011;7738;49.532;11.156;2022-07-05T02:23:50;1.65;;;0.45;;
15273;SDS011;7738;49.532;11.156;2022-07-05T02:26:23;1.05;;;0.50;;
15273;SDS011;7738;49.532;11.156;2022-07-05T02:28:54;1.42;;;0.40;;
15273;SDS011;7738;49.532;11.156;2022-07-05T02:31:24;1.25;;;0.35;;
15273;SDS011;7738;49.532;11.156;2022-07-05T02:33:55;0.98;;;0.47;;
15273;SDS011;7738;49.532;11.156;2022-07-05T02:36:25;2.88;;;0.30;;
15273;SDS011;7738;49.532;11.156;2022-07-05T02:38:58;0.68;;;0.40;;
15273;SDS011;7738;49.532;11.156;2022-07-05T02:41:29;1.50;;;0.45;;
15273;SDS011;7738;49.532;11.156;2022-07-05T02:44:01;0.60;;;0.30;;
15273;SDS011;7738;49.532;11.156;2022-07-05T02:46:32;3.05;;;0.57;;
15273;SDS011;7738;49.532;11.156;2022-07-05T02:49:03;0.68;;;0.50;;
15273;SDS011;7738;49.532;11.156;2022-07-05T02:51:35;3.92;;;0.35;;
15273;SDS011;7738;49.532;11.156;2022-07-05T02:54:10;0.70;;;0.50;;
15273;SDS011;7738;49.532;11.156;2022-07-05T02:56:42;1.05;;;0.50;;
15273;SDS011;7738;49.532;11.156;2022-07-05T02:59:14;1.63;;;0.60;;
15273;SDS011;7738;49.532;11.156;2022-07-05T03:01:44;0.93;;;0.50;;
15273;SDS011;7738;49.532;11.156;2022-07-05T03:04:16;1.27;;;0.47;;
15273;SDS011;7738;49.532;11.156;2022-07-05T03:06:52;1.02;;;0.60;;
15273;SDS011;7738;49.532;11.156;2022-07-05T03:09:28;1.45;;;0.80;;
15273;SDS011;7738;49.532;11.156;2022-07-05T03:12:00;1.00;;;0.63;;
15273;SDS011;7738;49.532;11.156;2022-07-05T03:14:32;3.15;;;0.47;;
15273;SDS011;7738;49.532;11.156;2022-07-05T03:17:03;2.50;;;0.45;;
15273;SDS011;7738;49.532;11.156;2022-07-05T03:19:33;1.00;;;0.80;;
15273;SDS011;7738;49.532;11.156;2022-07-05T03:22:05;0.65;;;0.40;;
15273;SDS011;7738;49.532;11.156;2022-07-05T03:24:40;1.85;;;0.38;;
15273;SDS011;7738;49.532;11.156;2022-07-05T03:27:11;1.52;;;0.77;;
15273;SDS011;7738;49.532;11.156;2022-07-05T03:29:47;1.20;;;0.57;;
15273;SDS011;7738;49.532;11.156;2022-07-05T03:32:18;1.67;;;0.50;;
15273;SDS011;7738;49.532;11.156;2022-07-05T03:34:48;5.00;;;0.60;;
15273;SDS011;7738;49.532;11.156;2022-07-05T03:37:19;0.90;;;0.60;;
15273;SDS011;7738;49.532;11.156;2022-07-05T03:39:52;1.70;;;0.90;;
15273;SDS011;7738;49.532;11.156;2022-07-05T03:42:22;2.28;;;0.68;;
15273;SDS011;7738;49.532;11.156;2022-07-05T03:44:53;1.88;;;0.60;;
15273;SDS011;7738;49.532;11.156;2022-07-05T03:47:23;1.52;;;0.60;;
15273;SDS011;7738;49.532;11.156;2022-07-05T03:49:54;1.70;;;0.60;;
15273;SDS011;7738;49.532;11.156;2022-07-05T03:52:24;1.20;;;0.70;;
15273;SDS011;7738;49.532;11.156;2022-07-05T03:54:59;2.72;;;0.80;;
15273;SDS011;7738;49.532;11.156;2022-07-05T03:57:29;0.70;;;0.60;;
15273;SDS011;7738;49.532;11.156;2022-07-05T04:00:00;0.75;;;0.50;;
15273;SDS011;7738;49.532;11.156;2022-07-05T04:02:38;1.73;;;0.80;;
15273;SDS011;7738;49.532;11.156;2022-07-05T04:07:47;0.95;;;0.38;;
15273;SDS011;7738;49.532;11.156;2022-07-05T04:10:24;4.60;;;0.90;;
15273;SDS011;7738;49.532;11.156;2022-07-05T04:12:55;1.67;;;0.95;;
15273;SDS011;7738;49.532;11.156;2022-07-05T04:15:27;1.65;;;0.82;;
15273;SDS011;7738;49.532;11.156;2022-07-05T04:18:00;4.35;;;0.70;;
15273;SDS011;7738;49.532;11.156;2022-07-05T04:20:34;2.17;;;1.05;;
15273;SDS011;7738;49.532;11.156;2022-07-05T04:23:08;1.15;;;0.80;;
15273;SDS011;7738;49.532;11.156;2022-07-05T04:25:41;1.98;;;0.80;;
15273;SDS011;7738;49.532;11.156;2022-07-05T04:28:20;2.35;;;0.93;;
15273;SDS011;7738;49.532;11.156;2022-07-05T04:30:53;1.65;;;0.80;;
15273;SDS011;7738;49.532;11.156;2022-07-05T04:33:24;2.25;;;0.80;;
15273;SDS011;7738;49.532;11.156;2022-07-05T04:35:57;0.98;;;0.82;;
15273;SDS011;7738;49.532;11.156;2022-07-05T04:38:27;2.72;;;1.08;;
15273;SDS011;7738;49.532;11.156;2022-07-05T04:41:02;2.40;;;1.00;;
15273;SDS011;7738;49.532;11.156;2022-07-05T04:43:34;6.18;;;1.27;;
15273;SDS011;7738;49.532;11.156;2022-07-05T04:46:08;2.85;;;0.95;;
15273;SDS011;7738;49.532;11.156;2022-07-05T04:48:38;2.03;;;1.00;;
15273;SDS011;7738;49.532;11.156;2022-07-05T04:51:10;1.23;;;0.60;;
15273;SDS011;7738;49.532;11.156;2022-07-05T04:53:44;2.03;;;0.75;;
15273;SDS011;7738;49.532;11.156;2022-07-05T04:56:17;1.42;;;0.93;;
15273;SDS011;7738;49.532;11.156;2022-07-05T04:58:47;4.30;;;1.10;;
15273;SDS011;7738;49.532;11.156;2022-07-05T05:01:17;5.35;;;1.00;;
15273;SDS011;7738;49.532;11.156;2022-07-05T05:03:47;5.45;;;0.95;;
15273;SDS011;7738;49.532;11.156;2022-07-05T05:06:17;1.30;;;1.20;;
15273;SDS011;7738;49.532;11.156;2022-07-05T05:08:48;1.58;;;1.10;;
15273;SDS011;7738;49.532;11.156;2022-07-05T05:11:20;1.75;;;0.90;;
15273;SDS011;7738;49.532;11.156;2022-07-05T05:13:50;1.70;;;0.82;;
15273;SDS011;7738;49.532;11.156;2022-07-05T05:16:21;2.25;;;0.77;;
15273;SDS011;7738;49.532;11.156;2022-07-05T05:18:51;2.05;;;0.75;;
15273;SDS011;7738;49.532;11.156;2022-07-05T05:21:21;0.88;;;0.50;;
15273;SDS011;7738;49.532;11.156;2022-07-05T05:23:52;1.65;;;0.60;;
15273;SDS011;7738;49.532;11.156;2022-07-05T05:26:24;1.08;;;0.65;;
15273;SDS011;7738;49.532;11.156;2022-07-05T05:28:54;3.65;;;0.50;;
15273;SDS011;7738;49.532;11.156;2022-07-05T05:31:25;2.70;;;0.50;;
15273;SDS011;7738;49.532;11.156;2022-07-05T05:33:55;4.50;;;0.60;;
15273;SDS011;7738;49.532;11.156;2022-07-05T05:36:25;1.63;;;1.10;;
15273;SDS011;7738;49.532;11.156;2022-07-05T05:38:55;4.25;;;0.40;;
15273;SDS011;7738;49.532;11.156;2022-07-05T05:41:28;2.80;;;0.40;;
15273;SDS011;7738;49.532;11.156;2022-07-05T05:43:58;0.88;;;0.40;;
15273;SDS011;7738;49.532;11.156;2022-07-05T05:46:29;1.55;;;0.38;;
15273;SDS011;7738;49.532;11.156;2022-07-05T05:48:59;1.08;;;0.50;;
15273;SDS011;7738;49.532;11.156;2022-07-05T05:51:29;3.90;;;0.50;;
15273;SDS011;7738;49.532;11.156;2022-07-05T05:53:59;1.67;;;0.45;;
15273;SDS011;7738;49.532;11.156;2022-07-05T05:56:35;1.80;;;0.47;;
15273;SDS011;7738;49.532;11.156;2022-07-05T05:59:05;2.90;;;0.70;;
15273;SDS011;7738;49.532;11.156;2022-07-05T06:01:35;1.38;;;0.70;;
15273;SDS011;7738;49.532;11.156;2022-07-05T06:04:05;2.60;;;0.43;;
15273;SDS011;7738;49.532;11.156;2022-07-05T06:06:40;5.90;;;0.75;;
15273;SDS011;7738;49.532;11.156;2022-07-05T06:09:10;2.88;;;0.68;;
15273;SDS011;7738;49.532;11.156;2022-07-05T06:11:43;2.00;;;0.47;;
15273;SDS011;7738;49.532;11.156;2022-07-05T06:14:13;2.72;;;0.40;;
15273;SDS011;7738;49.532;11.156;2022-07-05T06:16:43;2.80;;;0.40;;
15273;SDS011;7738;49.532;11.156;2022-07-05T06:19:14;1.08;;;0.38;;
15273;SDS011;7738;49.532;11.156;2022-07-05T06:21:44;0.63;;;0.30;;
15273;SDS011;7738;49.532;11.156;2022-07-05T06:24:14;1.58;;;0.22;;
15273;SDS011;7738;49.532;11.156;2022-07-05T06:26:47;3.42;;;0.40;;
15273;SDS011;7738;49.532;11.156;2022-07-05T06:29:17;1.07;;;0.53;;
15273;SDS011;7738;49.532;11.156;2022-07-05T06:31:48;3.08;;;0.50;;
15273;SDS011;7738;49.532;11.156;2022-07-05T06:34:18;11.25;;;0.65;;
15273;SDS011;7738;49.532;11.156;2022-07-05T06:36:48;1.95;;;0.40;;
15273;SDS011;7738;49.532;11.156;2022-07-05T06:39:18;2.90;;;0.57;;
15273;SDS011;7738;49.532;11.156;2022-07-05T06:41:51;4.03;;;0.40;;
15273;SDS011;7738;49.532;11.156;2022-07-05T06:44:21;1.97;;;0.47;;
15273;SDS011;7738;49.532;11.156;2022-07-05T06:47:02;2.00;;;0.55;;
15273;SDS011;7738;49.532;11.156;2022-07-05T06:49:32;4.10;;;0.30;;
15273;SDS011;7738;49.532;11.156;2022-07-05T06:52:03;8.32;;;0.68;;
15273;SDS011;7738;49.532;11.156;2022-07-05T06:54:33;3.85;;;0.60;;
15273;SDS011;7738;49.532;11.156;2022-07-05T06:57:22;1.35;;;0.40;;
15273;SDS011;7738;49.532;11.156;2022-07-05T06:59:57;0.52;;;0.22;;
15273;SDS011;7738;49.532;11.156;2022-07-05T07:02:30;3.17;;;0.40;;
15273;SDS011;7738;49.532;11.156;2022-07-05T07:05:00;2.10;;;0.30;;
15273;SDS011;7738;49.532;11.156;2022-07-05T07:07:35;1.35;;;0.52;;
15273;SDS011;7738;49.532;11.156;2022-07-05T07:10:18;0.88;;;0.30;;
15273;SDS011;7738;49.532;11.156;2022-07-05T07:12:57;0.80;;;0.30;;
15273;SDS011;7738;49.532;11.156;2022-07-05T07:15:27;0.87;;;0.40;;
15273;SDS011;7738;49.532;11.156;2022-07-05T07:18:00;3.45;;;0.32;;
15273;SDS011;7738;49.532;11.156;2022-07-05T07:20:30;3.67;;;0.40;;
15273;SDS011;7738;49.532;11.156;2022-07-05T07:23:00;4.10;;;0.32;;
15273;SDS011;7738;49.532;11.156;2022-07-05T07:25:31;4.78;;;0.17;;
15273;SDS011;7738;49.532;11.156;2022-07-05T07:28:05;1.00;;;0.38;;
15273;SDS011;7738;49.532;11.156;2022-07-05T07:30:35;0.75;;;0.10;;
15273;SDS011;7738;49.532;11.156;2022-07-05T07:33:05;1.30;;;0.22;;
15273;SDS011;7738;49.532;11.156;2022-07-05T07:35:55;1.23;;;0.38;;
15273;SDS011;7738;49.532;11.156;2022-07-05T07:38:26;1.80;;;0.40;;
15273;SDS011;7738;49.532;11.156;2022-07-05T07:40:56;5.25;;;0.55;;
15273;SDS011;7738;49.532;11.156;2022-07-05T07:43:29;1.98;;;0.32;;
15273;SDS011;7738;49.532;11.156;2022-07-05T07:45:59;4.78;;;0.40;;
15273;SDS011;7738;49.532;11.156;2022-07-05T07:48:30;1.35;;;0.28;;
15273;SDS011;7738;49.532;11.156;2022-07-05T07:51:00;1.98;;;0.63;;
15273;SDS011;7738;49.532;11.156;2022-07-05T07:53:31;1.17;;;0.30;;
15273;SDS011;7738;49.532;11.156;2022-07-05T07:56:01;3.67;;;0.50;;
15273;SDS011;7738;49.532;11.156;2022-07-05T07:58:34;1.65;;;0.22;;
15273;SDS011;7738;49.532;11.156;2022-07-05T08:01:05;1.63;;;0.30;;
15273;SDS011;7738;49.532;11.156;2022-07-05T08:03:38;7.32;;;0.20;;
15273;SDS011;7738;49.532;11.156;2022-07-05T08:08:54;1.48;;;0.20;;
15273;SDS011;7738;49.532;11.156;2022-07-05T08:11:25;1.55;;;0.17;;
15273;SDS011;7738;49.532;11.156;2022-07-05T08:13:58;1.33;;;0.50;;
15273;SDS011;7738;49.532;11.156;2022-07-05T08:16:29;2.10;;;0.30;;
15273;SDS011;7738;49.532;11.156;2022-07-05T08:19:00;2.40;;;0.30;;
15273;SDS011;7738;49.532;11.156;2022-07-05T08:21:42;0.35;;;0.10;;
15273;SDS011;7738;49.532;11.156;2022-07-05T08:24:14;2.20;;;0.20;;
15273;SDS011;7738;49.532;11.156;2022-07-05T08:26:44;2.22;;;0.47;;
15273;SDS011;7738;49.532;11.156;2022-07-05T08:29:17;1.58;;;0.10;;
15273;SDS011;7738;49.532;11.156;2022-07-05T08:31:50;1.42;;;0.17;;
15273;SDS011;7738;49.532;11.156;2022-07-05T08:34:20;1.83;;;0.20;;
15273;SDS011;7738;49.532;11.156;2022-07-05T08:36:51;0.60;;;0.10;;
15273;SDS011;7738;49.532;11.156;2022-07-05T08:39:21;1.00;;;0.10;;
15273;SDS011;7738;49.532;11.156;2022-07-05T08:41:52;1.58;;;0.13;;
15273;SDS011;7738;49.532;11.156;2022-07-05T08:44:25;2.88;;;0.10;;
15273;SDS011;7738;49.532;11.156;2022-07-05T08:46:59;3.67;;;0.30;;
15273;SDS011;7738;49.532;11.156;2022-07-05T08:49:32;1.30;;;0.00;;
15273;SDS011;7738;49.532;11.156;2022-07-05T08:52:04;2.33;;;0.10;;
15273;SDS011;7738;49.532;11.156;2022-07-05T08:54:34;2.90;;;0.20;;
15273;SDS011;7738;49.532;11.156;2022-07-05T08:57:06;0.70;;;0.10;;
15273;SDS011;7738;49.532;11.156;2022-07-05T08:59:41;3.17;;;0.75;;
15273;SDS011;7738;49.532;11.156;2022-07-05T09:02:13;1.38;;;0.10;;
15273;SDS011;7738;49.532;11.156;2022-07-05T09:04:45;3.85;;;0.13;;
15273;SDS011;7738;49.532;11.156;2022-07-05T09:07:16;5.63;;;0.47;;
15273;SDS011;7738;49.532;11.156;2022-07-05T09:09:49;1.85;;;0.10;;
15273;SDS011;7738;49.532;11.156;2022-07-05T09:12:19;1.92;;;0.10;;
15273;SDS011;7738;49.532;11.156;2022-07-05T09:14:55;1.57;;;0.23;;
15273;SDS011;7738;49.532;11.156;2022-07-05T09:20:06;0.50;;;0.10;;
15273;SDS011;7738;49.532;11.156;2022-07-05T09:22:47;1.65;;;0.40;;
15273;SDS011;7738;49.532;11.156;2022-07-05T09:25:21;4.13;;;0.20;;
15273;SDS011;7738;49.532;11.156;2022-07-05T09:27:54;1.83;;;0.20;;
15273;SDS011;7738;49.532;11.156;2022-07-05T09:30:29;2.15;;;0.30;;
15273;SDS011;7738;49.532;11.156;2022-07-05T09:33:00;0.95;;;0.20;;
15273;SDS011;7738;49.532;11.156;2022-07-05T09:35:35;1.92;;;0.20;;
15273;SDS011;7738;49.532;11.156;2022-07-05T09:38:15;0.93;;;0.22;;
15273;SDS011;7738;49.532;11.156;2022-07-05T09:40:47;1.63;;;0.30;;
15273;SDS011;7738;49.532;11.156;2022-07-05T09:43:18;1.35;;;0.25;;
15273;SDS011;7738;49.532;11.156;2022-07-05T09:45:55;1.38;;;0.13;;
15273;SDS011;7738;49.532;11.156;2022-07-05T09:48:25;3.25;;;0.40;;
15273;SDS011;7738;49.532;11.156;2022-07-05T09:51:06;2.03;;;0.35;;
15273;SDS011;7738;49.532;11.156;2022-07-05T09:53:58;7.07;;;0.30;;
15273;SDS011;7738;49.532;11.156;2022-07-05T09:56:44;0.95;;;0.10;;
15273;SDS011;7738;49.532;11.156;2022-07-05T09:59:15;0.75;;;0.10;;
15273;SDS011;7738;49.532;11.156;2022-07-05T10:01:51;2.13;;;0.10;;
15273;SDS011;7738;49.532;11.156;2022-07-05T10:04:21;0.82;;;0.10;;
15273;SDS011;7738;49.532;11.156;2022-07-05T10:06:52;2.58;;;0.20;;
15273;SDS011;7738;49.532;11.156;2022-07-05T10:09:22;1.23;;;0.30;;
15273;SDS011;7738;49.532;11.156;2022-07-05T10:11:52;0.70;;;0.10;;
15273;SDS011;7738;49.532;11.156;2022-07-05T10:14:23;1.92;;;0.22;;
15273;SDS011;7738;49.532;11.156;2022-07-05T10:16:59;2.67;;;0.30;;
15273;SDS011;7738;49.532;11.156;2022-07-05T10:19:32;1.48;;;0.30;;
15273;SDS011;7738;49.532;11.156;2022-07-05T10:22:03;0.50;;;0.10;;
15273;SDS011;7738;49.532;11.156;2022-07-05T10:24:45;2.78;;;0.32;;
15273;SDS011;7738;49.532;11.156;2022-07-05T10:27:17;0.52;;;0.10;;
15273;SDS011;7738;49.532;11.156;2022-07-05T10:29:48;1.00;;;0.10;;
15273;SDS011;7738;49.532;11.156;2022-07-05T10:32:22;1.08;;;0.20;;
15273;SDS011;7738;49.532;11.156;2022-07-05T10:34:52;1.13;;;0.10;;
15273;SDS011;7738;49.532;11.156;2022-07-05T10:37:24;1.45;;;0.30;;
15273;SDS011;7738;49.532;11.156;2022-07-05T10:39:56;0.70;;;0.20;;
15273;SDS011;7738;49.532;11.156;2022-07-05T10:42:28;0.85;;;0.00;;
15273;SDS011;7738;49.532;11.156;2022-07-05T10:44:59;1.15;;;0.25;;
15273;SDS011;7738;49.532;11.156;2022-07-05T10:47:33;0.90;;;0.10;;
15273;SDS011;7738;49.532;11.156;2022-07-05T10:50:04;0.25;;;0.10;;
15273;SDS011;7738;49.532;11.156;2022-07-05T10:52:35;0.93;;;0.10;;
15273;SDS011;7738;49.532;11.156;2022-07-05T11:04:19;2.38;;;0.10;;
15273;SDS011;7738;49.532;11.156;2022-07-05T11:06:53;0.28;;;0.10;;
15273;SDS011;7738;49.532;11.156;2022-07-05T11:09:23;1.83;;;0.10;;
15273;SDS011;7738;49.532;11.156;2022-07-05T11:12:04;0.93;;;0.20;;
15273;SDS011;7738;49.532;11.156;2022-07-05T11:15:03;0.43;;;0.10;;
15273;SDS011;7738;49.532;11.156;2022-07-05T11:17:35;0.93;;;0.10;;
15273;SDS011;7738;49.532;11.156;2022-07-05T11:20:29;0.50;;;0.10;;
15273;SDS011;7738;49.532;11.156;2022-07-05T11:23:00;3.00;;;0.30;;
15273;SDS011;7738;49.532;11.156;2022-07-05T11:25:31;0.63;;;0.10;;
15273;SDS011;7738;49.532;11.156;2022-07-05T11:28:06;1.35;;;0.10;;
15273;SDS011;7738;49.532;11.156;2022-07-05T11:30:46;2.10;;;0.30;;
15273;SDS011;7738;49.532;11.156;2022-07-05T11:33:26;2.85;;;0.10;;
15273;SDS011;7738;49.532;11.156;2022-07-05T11:36:00;5.45;;;0.20;;
15273;SDS011;7738;49.532;11.156;2022-07-05T11:38:31;0.95;;;0.10;;
15273;SDS011;7738;49.532;11.156;2022-07-05T11:41:21;1.65;;;0.20;;
15273;SDS011;7738;49.532;11.156;2022-07-05T11:43:55;1.05;;;0.20;;
15273;SDS011;7738;49.532;11.156;2022-07-05T11:46:26;1.95;;;0.10;;
15273;SDS011;7738;49.532;11.156;2022-07-05T11:49:19;3.17;;;0.15;;
15273;SDS011;7738;49.532;11.156;2022-07-05T11:51:56;2.63;;;0.20;;
15273;SDS011;7738;49.532;11.156;2022-07-05T11:54:30;2.97;;;0.10;;
15273;SDS011;7738;49.532;11.156;2022-07-05T11:57:01;0.35;;;0.10;;
15273;SDS011;7738;49.532;11.156;2022-07-05T11:59:37;1.05;;;0.55;;
15273;SDS011;7738;49.532;11.156;2022-07-05T12:02:08;2.63;;;0.20;;
15273;SDS011;7738;49.532;11.156;2022-07-05T12:04:38;2.17;;;0.10;;
15273;SDS011;7738;49.532;11.156;2022-07-05T12:07:11;4.00;;;0.20;;
15273;SDS011;7738;49.532;11.156;2022-07-05T12:09:41;1.95;;;0.10;;
15273;SDS011;7738;49.532;11.156;2022-07-05T12:12:24;1.08;;;0.20;;
15273;SDS011;7738;49.532;11.156;2022-07-05T12:15:07;1.33;;;0.10;;
15273;SDS011;7738;49.532;11.156;2022-07-05T12:17:38;2.40;;;0.77;;
15273;SDS011;7738;49.532;11.156;2022-07-05T12:20:10;0.30;;;0.10;;
15273;SDS011;7738;49.532;11.156;2022-07-05T12:22:44;3.03;;;0.10;;
15273;SDS011;7738;49.532;11.156;2022-07-05T12:25:15;0.70;;;0.15;;
15273;SDS011;7738;49.532;11.156;2022-07-05T12:27:47;1.55;;;0.20;;
15273;SDS011;7738;49.532;11.156;2022-07-05T12:30:18;4.53;;;0.10;;
15273;SDS011;7738;49.532;11.156;2022-07-05T12:32:55;0.65;;;0.10;;
15273;SDS011;7738;49.532;11.156;2022-07-05T12:35:28;0.77;;;0.10;;
15273;SDS011;7738;49.532;11.156;2022-07-05T12:38:05;1.65;;;0.10;;
15273;SDS011;7738;49.532;11.156;2022-07-05T12:40:42;2.43;;;0.40;;
15273;SDS011;7738;49.532;11.156;2022-07-05T12:43:15;2.38;;;0.10;;
15273;SDS011;7738;49.532;11.156;2022-07-05T12:45:58;0.52;;;0.10;;
15273;SDS011;7738;49.532;11.156;2022-07-05T12:48:30;2.67;;;0.10;;
15273;SDS011;7738;49.532;11.156;2022-07-05T12:51:01;0.82;;;0.10;;
15273;SDS011;7738;49.532;11.156;2022-07-05T12:53:48;0.57;;;0.10;;
15273;SDS011;7738;49.532;11.156;2022-07-05T12:56:31;3.00;;;0.20;;
15273;SDS011;7738;49.532;11.156;2022-07-05T12:59:34;1.63;;;0.20;;
15273;SDS011;7738;49.532;11.156;2022-07-05T13:02:04;1.33;;;0.10;;
15273;SDS011;7738;49.532;11.156;2022-07-05T13:04:35;0.80;;;0.10;;
15273;SDS011;7738;49.532;11.156;2022-07-05T13:07:09;0.57;;;0.10;;
15273;SDS011;7738;49.532;11.156;2022-07-05T13:12:48;1.13;;;0.22;;
15273;SDS011;7738;49.532;11.156;2022-07-05T13:15:18;3.72;;;0.20;;
15273;SDS011;7738;49.532;11.156;2022-07-05T13:17:49;0.85;;;0.20;;
15273;SDS011;7738;49.532;11.156;2022-07-05T13:20:20;0.88;;;0.03;;
15273;SDS011;7738;49.532;11.156;2022-07-05T13:22:50;0.80;;;0.10;;
15273;SDS011;7738;49.532;11.156;2022-07-05T13:25:23;1.13;;;0.17;;
15273;SDS011;7738;49.532;11.156;2022-07-05T13:27:55;1.77;;;0.30;;
15273;SDS011;7738;49.532;11.156;2022-07-05T13:30:25;2.25;;;0.20;;
15273;SDS011;7738;49.532;11.156;2022-07-05T13:32:55;0.70;;;0.00;;
15273;SDS011;7738;49.532;11.156;2022-07-05T13:35:25;0.70;;;0.10;;
15273;SDS011;7738;49.532;11.156;2022-07-05T13:37:56;1.55;;;0.10;;
15273;SDS011;7738;49.532;11.156;2022-07-05T13:40:29;1.98;;;0.25;;
15273;SDS011;7738;49.532;11.156;2022-07-05T13:42:59;1.73;;;0.10;;
15273;SDS011;7738;49.532;11.156;2022-07-05T13:45:29;1.20;;;0.10;;
15273;SDS011;7738;49.532;11.156;2022-07-05T13:47:59;3.70;;;0.10;;
15273;SDS011;7738;49.532;11.156;2022-07-05T13:50:30;3.78;;;0.10;;
15273;SDS011;7738;49.532;11.156;2022-07-05T13:53:02;2.30;;;0.10;;
15273;SDS011;7738;49.532;11.156;2022-07-05T13:55:35;0.82;;;0.20;;
15273;SDS011;7738;49.532;11.156;2022-07-05T13:58:06;0.22;;;0.10;;
15273;SDS011;7738;49.532;11.156;2022-07-05T14:00:36;2.50;;;0.20;;
15273;SDS011;7738;49.532;11.156;2022-07-05T14:03:07;0.90;;;0.10;;
15273;SDS011;7738;49.532;11.156;2022-07-05T14:05:37;0.38;;;0.10;;
15273;SDS011;7738;49.532;11.156;2022-07-05T14:08:08;1.77;;;0.30;;
15273;SDS011;7738;49.532;11.156;2022-07-05T14:10:41;0.60;;;0.10;;
15273;SDS011;7738;49.532;11.156;2022-07-05T14:13:11;1.40;;;0.30;;
15273;SDS011;7738;49.532;11.156;2022-07-05T14:15:41;0.95;;;0.20;;
15273;SDS011;7738;49.532;11.156;2022-07-05T14:18:12;0.60;;;0.10;;
15273;SDS011;7738;49.532;11.156;2022-07-05T14:20:43;2.83;;;0.28;;
15273;SDS011;7738;49.532;11.156;2022-07-05T14:23:14;3.08;;;0.65;;
15273;SDS011;7738;49.532;11.156;2022-07-05T14:25:47;0.80;;;0.15;;
15273;SDS011;7738;49.532;11.156;2022-07-05T14:28:18;1.08;;;0.20;;
15273;SDS011;7738;49.532;11.156;2022-07-05T14:30:48;1.90;;;0.13;;
15273;SDS011;7738;49.532;11.156;2022-07-05T14:33:18;1.13;;;0.10;;
15273;SDS011;7738;49.532;11.156;2022-07-05T14:35:49;0.95;;;0.15;;
15273;SDS011;7738;49.532;11.156;2022-07-05T14:38:19;1.40;;;0.10;;
15273;SDS011;7738;49.532;11.156;2022-07-05T14:40:53;1.27;;;0.30;;
15273;SDS011;7738;49.532;11.156;2022-07-05T14:45:53;2.80;;;0.15;;
15273;SDS011;7738;49.532;11.156;2022-07-05T14:48:24;1.30;;;0.30;;
15273;SDS011;7738;49.532;11.156;2022-07-05T14:50:55;2.40;;;0.30;;
15273;SDS011;7738;49.532;11.156;2022-07-05T14:53:26;1.90;;;0.30;;
15273;SDS011;7738;49.532;11.156;2022-07-05T14:55:59;1.10;;;0.13;;
15273;SDS011;7738;49.532;11.156;2022-07-05T14:58:29;2.50;;;0.20;;
15273;SDS011;7738;49.532;11.156;2022-07-05T15:01:00;2.63;;;0.45;;
15273;SDS011;7738;49.532;11.156;2022-07-05T15:03:31;2.25;;;0.22;;
15273;SDS011;7738;49.532;11.156;2022-07-05T15:06:01;2.75;;;0.17;;
15273;SDS011;7738;49.532;11.156;2022-07-05T15:08:32;6.65;;;0.20;;
15273;SDS011;7738;49.532;11.156;2022-07-05T15:11:05;1.42;;;0.30;;
15273;SDS011;7738;49.532;11.156;2022-07-05T15:13:35;1.25;;;0.20;;
15273;SDS011;7738;49.532;11.156;2022-07-05T15:16:06;2.83;;;0.20;;
15273;SDS011;7738;49.532;11.156;2022-07-05T15:18:36;1.25;;;0.20;;
15273;SDS011;7738;49.532;11.156;2022-07-05T15:21:07;1.05;;;0.38;;
15273;SDS011;7738;49.532;11.156;2022-07-05T15:23:38;1.95;;;0.13;;
15273;SDS011;7738;49.532;11.156;2022-07-05T15:26:11;0.98;;;0.10;;
15273;SDS011;7738;49.532;11.156;2022-07-05T15:28:41;1.38;;;0.40;;
15273;SDS011;7738;49.532;11.156;2022-07-05T15:31:11;0.80;;;0.00;;
15273;SDS011;7738;49.532;11.156;2022-07-05T15:33:42;2.55;;;0.15;;
15273;SDS011;7738;49.532;11.156;2022-07-05T15:36:12;1.08;;;0.13;;
15273;SDS011;7738;49.532;11.156;2022-07-05T15:38:42;1.00;;;0.25;;
15273;SDS011;7738;49.532;11.156;2022-07-05T15:41:15;0.73;;;0.00;;
15273;SDS011;7738;49.532;11.156;2022-07-05T15:43:45;4.80;;;0.30;;